createdAt,value
2022-09-05T00:02:33.714Z,14.10
2022-09-05T00:05:29.177Z,14.03
2022-09-05T00:08:22.049Z,14.03
2022-09-05T00:11:43.105Z,14.05
2022-09-05T00:14:08.879Z,14.04
2022-09-05T00:16:49.573Z,14.03
2022-09-05T00:24:20.076Z,14.04
2022-09-05T00:24:34.703Z,14.05
2022-09-05T00:26:03.525Z,14.07
2022-09-05T00:28:44.869Z,14.13
2022-09-05T00:31:54.936Z,14.10
2022-09-05T00:34:56.717Z,14.06
2022-09-05T00:37:36.586Z,14.01
2022-09-05T00:40:28.270Z,14.01
2022-09-05T00:43:09.725Z,13.97
2022-09-05T00:45:52.960Z,13.82
2022-09-05T00:48:44.423Z,13.75
2022-09-05T00:51:49.201Z,13.68
2022-09-05T00:54:40.887Z,13.66
2022-09-05T00:57:38.027Z,13.55
2022-09-05T01:00:20.835Z,13.53
2022-09-05T01:03:06.202Z,13.52
2022-09-05T01:05:52.950Z,13.53
2022-09-05T01:08:22.133Z,13.57
2022-09-05T01:10:57.599Z,13.48
2022-09-05T01:13:49.885Z,13.41
2022-09-05T01:16:27.509Z,13.42
2022-09-05T01:19:27.822Z,13.35
2022-09-05T01:22:20.219Z,13.37
2022-09-05T01:25:08.436Z,13.39
2022-09-05T01:29:14.527Z,13.39
2022-09-05T01:30:55.510Z,13.38
2022-09-05T01:33:49.497Z,13.38
2022-09-05T01:36:47.100Z,13.40
2022-09-05T01:40:14.374Z,13.47
2022-09-05T01:42:29.481Z,13.46
2022-09-05T01:45:24.627Z,13.44
2022-09-05T01:48:23.693Z,13.46
2022-09-05T01:51:36.946Z,13.49
2022-09-05T01:54:29.738Z,13.47
2022-09-05T01:57:36.301Z,13.46
2022-09-05T02:00:12.199Z,13.40
2022-09-05T02:02:50.470Z,13.32
2022-09-05T02:05:47.577Z,13.35
2022-09-05T02:08:15.730Z,13.39
2022-09-05T02:11:00.749Z,13.43
2022-09-05T02:13:35.998Z,13.32
2022-09-05T02:16:24.174Z,13.20
2022-09-05T02:18:58.967Z,13.14
2022-09-05T02:21:34.594Z,12.94
2022-09-05T02:24:33.395Z,12.89
2022-09-05T02:27:12.518Z,12.87
2022-09-05T02:30:19.112Z,12.80
2022-09-05T02:33:12.448Z,12.78
2022-09-05T02:36:05.485Z,12.80
2022-09-05T02:41:24.505Z,12.78
2022-09-05T02:45:12.795Z,12.77
2022-09-05T02:45:15.329Z,12.80
2022-09-05T02:48:16.268Z,12.87
2022-09-05T02:55:56.112Z,12.94
2022-09-05T02:57:42.663Z,12.97
2022-09-05T02:58:04.728Z,12.98
2022-09-05T03:00:16.008Z,12.84
2022-09-05T03:03:16.870Z,12.84
2022-09-05T03:05:56.645Z,12.80
2022-09-05T03:08:51.944Z,12.76
2022-09-05T03:11:47.925Z,12.73
2022-09-05T03:14:41.975Z,12.70
2022-09-05T03:17:11.345Z,12.72
2022-09-05T03:20:06.200Z,12.70
2022-09-05T03:22:52.261Z,12.71
2022-09-05T03:25:55.686Z,12.68
2022-09-05T03:29:08.117Z,12.64
2022-09-05T03:31:59.011Z,12.59
2022-09-05T03:34:37.759Z,12.60
2022-09-05T03:37:41.711Z,12.60
2022-09-05T03:40:16.954Z,12.63
2022-09-05T03:42:58.851Z,12.62
2022-09-05T03:46:01.802Z,12.64
2022-09-05T03:48:40.091Z,12.63
2022-09-05T03:57:07.416Z,12.66
2022-09-05T03:57:15.838Z,12.64
2022-09-05T03:57:43.472Z,12.56
2022-09-05T04:00:34.392Z,12.47
2022-09-05T04:08:07.002Z,12.46
2022-09-05T04:08:29.250Z,12.50
2022-09-05T04:08:48.019Z,12.54
2022-09-05T04:11:36.063Z,12.51
2022-09-05T04:14:46.217Z,12.54
2022-09-05T04:17:27.321Z,12.54
2022-09-05T04:20:17.973Z,12.49
2022-09-05T04:23:23.618Z,12.52
2022-09-05T04:26:11.384Z,12.51
2022-09-05T04:28:58.669Z,12.52
2022-09-05T04:32:18.396Z,12.51
2022-09-05T04:35:04.230Z,12.55
2022-09-05T04:37:48.816Z,12.57
2022-09-05T04:40:37.574Z,12.60
2022-09-05T04:43:28.669Z,12.63
2022-09-05T04:46:19.001Z,12.69
2022-09-05T04:49:04.953Z,12.73
2022-09-05T04:51:36.113Z,12.67
2022-09-05T04:54:29.962Z,12.61
2022-09-05T04:57:13.769Z,12.66
2022-09-05T05:03:03.245Z,12.60
2022-09-05T05:06:01.607Z,12.61
2022-09-05T05:06:14.484Z,12.52
2022-09-05T05:08:46.310Z,12.43
2022-09-05T05:13:51.196Z,12.44
2022-09-05T05:18:03.223Z,12.61
2022-09-05T05:18:16.247Z,12.64
2022-09-05T05:20:41.427Z,12.70
2022-09-05T05:23:17.115Z,12.73
2022-09-05T05:25:51.475Z,12.75
2022-09-05T05:28:29.286Z,12.73
2022-09-05T05:31:08.105Z,12.74
2022-09-05T05:33:38.898Z,12.88
2022-09-05T05:36:09.768Z,12.97
2022-09-05T05:38:48.916Z,13.13
2022-09-05T05:41:27.360Z,13.29
2022-09-05T05:43:54.211Z,13.33
2022-09-05T05:46:33.233Z,13.33
2022-09-05T05:49:11.931Z,13.40
2022-09-05T05:52:06.295Z,13.60
2022-09-05T05:55:07.342Z,13.70
2022-09-05T05:58:02.149Z,13.72
2022-09-05T06:00:54.612Z,13.56
2022-09-05T06:03:39.793Z,13.57
2022-09-05T06:06:32.292Z,13.61
2022-09-05T06:14:48.234Z,13.67
2022-09-05T06:14:59.829Z,13.75
2022-09-05T06:16:17.662Z,14.05
2022-09-05T06:18:50.130Z,14.17
2022-09-05T06:22:13.198Z,14.40
2022-09-05T06:25:16.343Z,14.55
2022-09-05T06:28:17.934Z,14.66
2022-09-05T06:31:29.309Z,14.77
2022-09-05T06:34:32.998Z,15.15
2022-09-05T06:37:10.549Z,15.39
2022-09-05T06:40:00.515Z,15.59
2022-09-05T06:43:06.034Z,15.72
2022-09-05T06:46:03.193Z,15.88
2022-09-05T06:48:44.674Z,15.95
2022-09-05T06:51:37.197Z,16.10
2022-09-05T06:54:41.415Z,16.04
2022-09-05T06:57:44.442Z,16.41
2022-09-05T07:00:19.636Z,16.36
2022-09-05T07:03:20.565Z,16.28
2022-09-05T07:06:04.646Z,16.52
2022-09-05T07:08:51.243Z,16.91
2022-09-05T07:11:25.440Z,17.20
2022-09-05T07:14:18.703Z,17.28
2022-09-05T07:16:57.253Z,17.23
2022-09-05T07:19:34.422Z,17.55
2022-09-05T07:22:33.450Z,17.55
2022-09-05T07:24:57.997Z,17.61
2022-09-05T07:27:41.758Z,17.74
2022-09-05T07:30:21.793Z,17.74
2022-09-05T07:32:53.553Z,17.95
2022-09-05T07:35:38.455Z,18.05
2022-09-05T07:38:16.021Z,18.32
2022-09-05T07:40:52.135Z,18.44
2022-09-05T07:43:30.382Z,18.72
2022-09-05T07:46:08.238Z,19.00
2022-09-05T07:48:40.294Z,19.05
2022-09-05T07:56:50.805Z,19.15
2022-09-05T07:56:59.131Z,19.35
2022-09-05T07:57:31.409Z,19.30
2022-09-05T08:00:05.585Z,19.19
2022-09-05T08:02:32.059Z,19.41
2022-09-05T08:05:05.864Z,19.31
2022-09-05T08:07:49.804Z,19.54
2022-09-05T08:10:35.914Z,19.66
2022-09-05T08:13:28.066Z,20.11
2022-09-05T08:16:11.091Z,20.08
2022-09-05T08:18:46.623Z,20.17
2022-09-05T08:21:27.425Z,20.12
2022-09-05T08:24:13.942Z,20.67
2022-09-05T08:26:49.608Z,20.88
2022-09-05T08:29:29.805Z,21.29
2022-09-05T08:32:11.297Z,20.90
2022-09-05T08:34:47.760Z,21.18
2022-09-05T08:37:20.993Z,21.18
2022-09-05T08:40:10.006Z,21.60
2022-09-05T08:42:57.165Z,21.65
2022-09-05T08:46:45.642Z,22.20
2022-09-05T08:49:13.004Z,21.89
2022-09-05T08:51:55.950Z,22.31
2022-09-05T08:54:34.471Z,22.39
2022-09-05T08:57:06.819Z,22.17
2022-09-05T08:59:57.844Z,22.53
2022-09-05T09:03:04.433Z,22.55
2022-09-05T09:06:15.135Z,22.91
2022-09-05T09:08:54.549Z,23.26
2022-09-05T09:11:38.306Z,23.33
2022-09-05T09:14:31.183Z,23.51
2022-09-05T09:17:26.169Z,24.04
2022-09-05T09:20:11.527Z,24.05
2022-09-05T09:22:52.042Z,24.26
2022-09-05T09:25:31.908Z,23.98
2022-09-05T09:28:48.539Z,24.50
2022-09-05T09:31:23.316Z,23.97
2022-09-05T09:34:04.354Z,24.49
2022-09-05T09:37:01.901Z,24.48
2022-09-05T09:39:39.679Z,24.60
2022-09-05T09:42:39.191Z,25.01
2022-09-05T09:45:29.595Z,25.18
2022-09-05T09:48:09.871Z,25.19
2022-09-05T09:50:58.408Z,25.24
2022-09-05T09:53:36.991Z,25.73
2022-09-05T09:56:26.902Z,25.84
2022-09-05T09:59:14.058Z,26.22
2022-09-05T10:03:36.318Z,26.09
2022-09-05T10:10:34.023Z,26.42
2022-09-05T10:10:49.152Z,26.54
2022-09-05T10:11:55.058Z,26.23
2022-09-05T10:14:49.804Z,26.77
2022-09-05T10:17:31.943Z,26.63
2022-09-05T10:20:12.017Z,26.93
2022-09-05T10:23:02.229Z,26.81
2022-09-05T10:25:43.802Z,27.03
2022-09-05T10:28:34.553Z,26.84
2022-09-05T10:35:06.907Z,27.13
2022-09-05T10:35:10.609Z,26.56
2022-09-05T10:37:13.984Z,26.79
2022-09-05T10:39:45.285Z,26.87
2022-09-05T10:42:40.236Z,27.24
2022-09-05T10:45:38.676Z,27.49
2022-09-05T10:48:26.114Z,27.01
2022-09-05T10:51:00.903Z,26.78
2022-09-05T10:53:44.151Z,27.11
2022-09-05T10:56:27.125Z,27.54
2022-09-05T10:59:50.105Z,27.70
2022-09-05T11:02:27.976Z,28.18
2022-09-05T11:04:51.123Z,28.14
2022-09-05T11:07:26.632Z,27.62
2022-09-05T11:10:13.248Z,27.79
2022-09-05T11:12:57.201Z,28.05
2022-09-05T11:15:39.296Z,28.17
2022-09-05T11:18:18.123Z,28.54
2022-09-05T11:21:00.989Z,28.30
2022-09-05T11:23:46.673Z,28.44
2022-09-05T11:26:51.419Z,28.77
2022-09-05T11:29:43.230Z,28.50
2022-09-05T11:35:50.021Z,28.70
2022-09-05T11:39:49.192Z,29.12
2022-09-05T11:40:08.376Z,28.26
2022-09-05T11:42:09.478Z,28.72
2022-09-05T11:44:57.727Z,28.88
2022-09-05T11:47:39.792Z,28.85
2022-09-05T11:50:10.193Z,28.90
2022-09-05T11:52:57.804Z,28.84
2022-09-05T11:55:30.305Z,29.15
2022-09-05T11:58:43.400Z,29.09
2022-09-05T12:01:41.227Z,29.37
2022-09-05T12:04:33.122Z,29.11
2022-09-05T12:07:24.099Z,29.07
2022-09-05T12:09:58.822Z,28.87
2022-09-05T12:12:44.259Z,28.83
2022-09-05T12:15:26.336Z,28.61
2022-09-05T12:18:18.901Z,28.73
2022-09-05T12:20:56.303Z,29.07
2022-09-05T12:24:11.597Z,29.00
2022-09-05T12:27:39.805Z,29.40
2022-09-05T12:29:49.022Z,29.35
2022-09-05T12:33:28.347Z,28.89
2022-09-05T12:36:12.192Z,29.08
2022-09-05T12:40:55.373Z,29.37
2022-09-05T12:41:46.170Z,29.10
2022-09-05T12:44:42.788Z,29.22
2022-09-05T12:46:49.415Z,29.37
2022-09-05T12:49:36.151Z,29.08
2022-09-05T12:52:13.310Z,29.48
2022-09-05T12:54:51.022Z,29.75
2022-09-05T13:01:33.341Z,29.74
2022-09-05T13:03:15.335Z,29.57
2022-09-05T13:03:28.530Z,28.91
2022-09-05T13:06:24.874Z,28.73
2022-09-05T13:09:02.634Z,28.58
2022-09-05T13:14:53.362Z,28.29
2022-09-05T13:15:02.405Z,28.57
2022-09-05T13:17:14.999Z,28.52
2022-09-05T13:19:45.143Z,28.61
2022-09-05T13:22:16.443Z,28.61
2022-09-05T13:24:49.880Z,28.64
2022-09-05T13:27:29.465Z,28.65
2022-09-05T13:30:54.822Z,28.50
2022-09-05T13:37:59.938Z,28.66
2022-09-05T13:38:17.982Z,29.06
2022-09-05T13:39:02.666Z,29.50
2022-09-05T13:41:37.309Z,29.90
2022-09-05T13:44:27.069Z,30.44
2022-09-05T13:47:28.941Z,30.27
2022-09-05T13:50:26.823Z,30.02
2022-09-05T13:52:58.621Z,30.03
2022-09-05T13:55:39.430Z,30.15
2022-09-05T13:58:16.387Z,30.03
2022-09-05T14:01:04.294Z,29.90
2022-09-05T14:03:56.329Z,29.76
2022-09-05T14:06:47.750Z,29.30
2022-09-05T14:09:37.117Z,29.73
2022-09-05T14:12:10.690Z,29.19
2022-09-05T14:18:12.784Z,29.48
2022-09-05T14:21:02.344Z,29.68
2022-09-05T14:23:43.988Z,29.90
2022-09-05T14:26:21.584Z,29.72
2022-09-05T14:29:05.099Z,29.70
2022-09-05T14:37:48.500Z,29.66
2022-09-05T14:38:01.011Z,29.62
2022-09-05T14:38:13.611Z,29.51
2022-09-05T14:40:47.093Z,29.57
2022-09-05T14:43:47.548Z,29.53
2022-09-05T14:46:49.823Z,29.24
2022-09-05T14:49:38.686Z,29.41
2022-09-05T14:52:23.586Z,29.62
2022-09-05T15:02:44.079Z,29.52
2022-09-05T15:02:50.744Z,29.28
2022-09-05T15:06:33.219Z,28.98
2022-09-05T15:12:18.301Z,28.92
2022-09-05T15:12:22.232Z,28.87
2022-09-05T15:14:36.139Z,28.70
2022-09-05T15:17:05.724Z,28.65
2022-09-05T15:20:05.460Z,28.60
2022-09-05T15:22:40.801Z,28.53
2022-09-05T15:25:16.717Z,28.51
2022-09-05T15:27:44.432Z,28.58
2022-09-05T15:30:27.547Z,28.52
2022-09-05T15:33:25.548Z,28.29
2022-09-05T15:35:52.665Z,28.09
2022-09-05T15:38:30.056Z,27.98
2022-09-05T15:41:21.819Z,27.82
2022-09-05T15:43:48.162Z,27.71
2022-09-05T15:46:24.869Z,27.59
2022-09-05T15:48:57.767Z,27.54
2022-09-05T15:51:36.234Z,27.46
2022-09-05T15:54:05.020Z,27.43
2022-09-05T15:56:33.719Z,27.37
2022-09-05T15:59:01.654Z,27.33
2022-09-05T16:01:58.734Z,27.33
2022-09-05T16:09:49.928Z,27.27
2022-09-05T16:10:33.927Z,27.11
2022-09-05T16:10:58.330Z,26.94
2022-09-05T16:13:15.679Z,26.78
2022-09-05T16:19:36.252Z,26.66
2022-09-05T16:23:26.555Z,26.66
2022-09-05T16:23:28.096Z,26.37
2022-09-05T16:24:34.876Z,26.15
2022-09-05T16:27:16.518Z,26.06
2022-09-05T16:29:44.970Z,26.03
2022-09-05T16:32:21.338Z,25.87
2022-09-05T16:35:10.595Z,25.69
2022-09-05T16:37:46.339Z,25.57
2022-09-05T16:40:24.829Z,25.53
2022-09-05T16:43:28.512Z,25.37
2022-09-05T16:46:21.294Z,25.56
2022-09-05T16:49:36.843Z,25.42
2022-09-05T16:52:17.057Z,25.21
2022-09-05T16:54:56.848Z,25.23
2022-09-05T16:57:29.203Z,25.23
2022-09-05T16:59:57.344Z,25.26
2022-09-05T17:02:48.458Z,25.25
2022-09-05T17:05:43.606Z,25.25
2022-09-05T17:08:27.985Z,25.20
2022-09-05T17:11:03.970Z,25.16
2022-09-05T17:13:52.209Z,25.13
2022-09-05T17:16:31.342Z,25.10
2022-09-05T17:19:00.680Z,25.08
2022-09-05T17:29:16.083Z,25.02
2022-09-05T17:29:17.525Z,25.05
2022-09-05T17:29:27.607Z,24.97
2022-09-05T17:31:48.881Z,24.91
2022-09-05T17:32:51.543Z,24.79
2022-09-05T17:36:02.533Z,24.61
2022-09-05T17:39:16.816Z,24.41
2022-09-05T17:42:07.881Z,24.27
2022-09-05T17:44:57.445Z,24.12
2022-09-05T17:47:35.874Z,23.92
2022-09-05T17:50:12.967Z,23.72
2022-09-05T17:52:54.623Z,23.62
2022-09-05T17:55:41.061Z,23.48
2022-09-05T17:58:39.928Z,23.34
2022-09-05T18:01:19.741Z,23.22
2022-09-05T18:03:49.474Z,23.14
2022-09-05T18:06:15.895Z,23.05
2022-09-05T18:08:45.144Z,22.96
2022-09-05T18:11:33.523Z,22.88
2022-09-05T18:14:24.437Z,22.73
2022-09-05T18:17:37.245Z,22.63
2022-09-05T18:19:40.855Z,22.62
2022-09-05T18:22:28.310Z,22.47
2022-09-05T18:25:28.894Z,22.24
2022-09-05T18:28:13.886Z,22.11
2022-09-05T18:30:40.323Z,21.99
2022-09-05T18:33:56.303Z,21.94
2022-09-05T18:35:59.492Z,21.88
2022-09-05T18:38:51.272Z,21.81
2022-09-05T18:41:21.827Z,21.68
2022-09-05T18:44:00.567Z,21.57
2022-09-05T18:46:46.172Z,21.50
2022-09-05T18:50:25.964Z,21.41
2022-09-05T18:52:27.211Z,21.37
2022-09-05T18:56:09.131Z,21.31
2022-09-05T18:58:21.246Z,21.20
2022-09-05T19:00:54.914Z,21.12
2022-09-05T19:03:28.948Z,21.03
2022-09-05T19:06:35.251Z,20.93
2022-09-05T19:08:55.378Z,20.87
2022-09-05T19:11:52.743Z,20.82
2022-09-05T19:14:38.364Z,20.67
2022-09-05T19:17:17.787Z,20.58
2022-09-05T19:20:11.292Z,20.50
2022-09-05T19:23:10.803Z,20.40
2022-09-05T19:25:41.173Z,20.35
2022-09-05T19:36:36.311Z,20.25
2022-09-05T19:36:45.878Z,20.10
2022-09-05T19:37:06.085Z,20.05
2022-09-05T19:37:29.553Z,20.02
2022-09-05T19:42:20.058Z,19.97
2022-09-05T19:47:27.525Z,19.91
2022-09-05T19:47:45.336Z,19.78
2022-09-05T19:50:58.047Z,19.63
2022-09-05T19:53:27.131Z,19.59
2022-09-05T19:55:53.870Z,19.56
2022-09-05T19:58:22.528Z,19.48
2022-09-05T20:01:02.525Z,19.48
2022-09-05T20:03:39.357Z,19.41
2022-09-05T20:06:30.348Z,19.34
2022-09-05T20:09:17.474Z,19.31
2022-09-05T20:11:51.950Z,19.25
2022-09-05T20:14:23.271Z,19.17
2022-09-05T20:16:51.921Z,19.12
2022-09-05T20:19:28.915Z,19.07
2022-09-05T20:21:57.542Z,18.93
2022-09-05T20:24:24.331Z,18.89
2022-09-05T20:26:51.299Z,18.89
2022-09-05T20:29:34.856Z,18.74
2022-09-05T20:32:34.990Z,18.61
2022-09-05T20:38:44.485Z,18.56
2022-09-05T20:43:22.466Z,18.43
2022-09-05T20:43:25.327Z,18.54
2022-09-05T20:43:54.841Z,18.42
2022-09-05T20:49:49.863Z,18.33
2022-09-05T20:54:09.131Z,18.27
2022-09-05T20:54:14.531Z,18.25
2022-09-05T20:54:58.283Z,18.19
2022-09-05T20:57:34.364Z,18.12
2022-09-05T21:00:24.748Z,18.10
2022-09-05T21:02:56.672Z,18.12
2022-09-05T21:05:29.758Z,18.07
2022-09-05T21:08:14.961Z,17.94
2022-09-05T21:10:57.026Z,17.93
2022-09-05T21:13:32.722Z,17.91
2022-09-05T21:16:00.203Z,17.83
2022-09-05T21:18:33.647Z,17.76
2022-09-05T21:21:27.885Z,17.76
2022-09-05T21:24:16.099Z,17.70
2022-09-05T21:26:45.364Z,17.71
2022-09-05T21:29:11.786Z,17.65
2022-09-05T21:31:54.479Z,17.54
2022-09-05T21:34:34.949Z,17.46
2022-09-05T21:37:07.696Z,17.42
2022-09-05T21:39:46.475Z,17.41
2022-09-05T21:47:38.255Z,17.42
2022-09-05T21:47:42.443Z,17.41
2022-09-05T21:47:58.639Z,17.36
2022-09-05T21:50:31.060Z,17.26
2022-09-05T21:53:17.481Z,17.23
2022-09-05T21:59:32.700Z,17.04
2022-09-05T21:59:33.446Z,17.11
2022-09-05T22:01:44.737Z,17.00
2022-09-05T22:04:10.118Z,16.96
2022-09-05T22:06:36.608Z,16.91
2022-09-05T22:09:13.924Z,16.88
2022-09-05T22:11:41.125Z,16.91
2022-09-05T22:14:07.713Z,16.82
2022-09-05T22:16:34.412Z,16.77
2022-09-05T22:19:01.233Z,16.75
2022-09-05T22:21:34.592Z,16.71
2022-09-05T22:24:09.343Z,16.64
2022-09-05T22:26:41.630Z,16.60
2022-09-05T22:29:25.686Z,16.57
2022-09-05T22:31:54.993Z,16.54
2022-09-05T22:34:21.912Z,16.44
2022-09-05T22:36:48.597Z,16.44
2022-09-05T22:39:16.638Z,16.36
2022-09-05T22:42:01.417Z,16.27
2022-09-05T22:44:30.397Z,16.27
2022-09-05T22:46:56.814Z,16.28
2022-09-05T22:49:23.230Z,16.28
2022-09-05T22:51:49.690Z,16.28
2022-09-05T22:54:16.203Z,16.20
2022-09-05T22:56:42.678Z,16.18
2022-09-05T22:59:09.388Z,16.19
2022-09-05T23:01:35.804Z,16.17
2022-09-05T23:04:02.573Z,16.15
2022-09-05T23:06:29.056Z,16.16
2022-09-05T23:08:55.404Z,16.13
2022-09-05T23:11:21.757Z,16.11
2022-09-05T23:13:48.215Z,16.05
2022-09-05T23:16:15.056Z,16.04
2022-09-05T23:18:41.680Z,16.01
2022-09-05T23:21:10.697Z,16.01
2022-09-05T23:23:38.795Z,16.04
2022-09-05T23:26:07.414Z,16.03
2022-09-05T23:28:33.958Z,16.00
2022-09-05T23:31:01.859Z,15.98
2022-09-05T23:33:29.256Z,15.97
2022-09-05T23:36:02.597Z,15.97
2022-09-05T23:38:29.397Z,15.99
2022-09-05T23:41:00.315Z,16.00
2022-09-05T23:43:27.238Z,16.02
2022-09-05T23:45:53.826Z,16.04
2022-09-05T23:48:20.707Z,16.06
2022-09-05T23:50:47.070Z,16.04
2022-09-05T23:53:13.724Z,16.01
2022-09-05T23:55:40.270Z,15.96
2022-09-05T23:58:06.911Z,15.91
